createdAt,value
2023-02-12T00:03:04.944Z,103462.00
2023-02-12T00:05:44.838Z,103470.00
2023-02-12T00:12:21.733Z,103472.00
2023-02-12T00:18:59.814Z,103482.00
2023-02-12T00:21:27.929Z,103481.00
2023-02-12T00:23:55.182Z,103487.00
2023-02-12T00:27:01.988Z,103489.00
2023-02-12T00:29:29.153Z,103486.00
2023-02-12T00:31:56.357Z,103472.00
2023-02-12T00:35:01.180Z,103487.00
2023-02-12T00:37:28.377Z,103482.00
2023-02-12T00:39:55.568Z,103485.00
2023-02-12T00:42:22.710Z,103481.00
2023-02-12T00:44:49.878Z,103481.00
2023-02-12T00:47:17.219Z,103479.00
2023-02-12T00:50:03.333Z,103479.00
2023-02-12T00:52:30.491Z,103480.00
2023-02-12T00:58:57.671Z,103476.00
2023-02-12T01:01:25.085Z,103470.00
2023-02-12T01:03:52.375Z,103478.00
2023-02-12T01:11:36.203Z,103479.00
2023-02-12T01:14:04.284Z,103480.00
2023-02-12T01:16:36.760Z,103471.00
2023-02-12T01:23:52.373Z,103467.00
2023-02-12T01:26:21.418Z,103463.00
2023-02-12T01:28:59.155Z,103460.00
2023-02-12T01:31:45.163Z,103464.00
2023-02-12T01:34:13.352Z,103456.00
2023-02-12T01:36:59.207Z,103465.00
2023-02-12T01:39:28.618Z,103454.00
2023-02-12T01:41:55.953Z,103447.00
2023-02-12T01:44:28.625Z,103458.00
2023-02-12T01:47:02.199Z,103453.00
2023-02-12T01:49:46.031Z,103460.00
2023-02-12T01:52:53.852Z,103444.00
2023-02-12T01:55:21.547Z,103459.00
2023-02-12T01:57:51.239Z,103446.00
2023-02-12T02:00:24.928Z,103459.00
2023-02-12T02:02:58.518Z,103448.00
2023-02-12T02:05:46.997Z,103447.00
2023-02-12T02:08:14.570Z,103458.00
2023-02-12T02:10:44.147Z,103456.00
2023-02-12T02:13:30.065Z,103455.00
2023-02-12T02:16:07.527Z,103445.00
2023-02-12T02:18:49.417Z,103452.00
2023-02-12T02:22:22.465Z,103450.00
2023-02-12T02:25:04.326Z,103446.00
2023-02-12T02:27:51.102Z,103437.00
2023-02-12T02:30:33.632Z,103439.00
2023-02-12T02:33:48.408Z,103442.00
2023-02-12T02:36:31.182Z,103439.00
2023-02-12T02:39:13.507Z,103441.00
2023-02-12T02:41:55.393Z,103433.00
2023-02-12T02:45:02.095Z,103435.00
2023-02-12T02:47:43.825Z,103432.00
2023-02-12T02:50:18.736Z,103431.00
2023-02-12T02:53:08.971Z,103430.00
2023-02-12T02:55:51.168Z,103436.00
2023-02-12T02:58:26.739Z,103437.00
2023-02-12T03:01:11.069Z,103435.00
2023-02-12T03:04:13.851Z,103437.00
2023-02-12T03:06:48.226Z,103435.00
2023-02-12T03:09:35.920Z,103438.00
2023-02-12T03:12:15.529Z,103441.00
2023-02-12T03:14:58.604Z,103436.00
2023-02-12T03:22:59.690Z,103442.00
2023-02-12T03:25:44.512Z,103432.00
2023-02-12T03:28:34.931Z,103444.00
2023-02-12T03:31:42.803Z,103443.00
2023-02-12T03:34:24.883Z,103435.00
2023-02-12T03:37:25.182Z,103438.00
2023-02-12T03:40:13.443Z,103431.00
2023-02-12T03:43:03.107Z,103431.00
2023-02-12T03:45:53.612Z,103429.00
2023-02-12T03:48:59.789Z,103432.00
2023-02-12T03:52:25.180Z,103441.00
2023-02-12T03:59:04.301Z,103433.00
2023-02-12T04:01:33.908Z,103438.00
2023-02-12T04:04:07.409Z,103446.00
2023-02-12T04:06:35.022Z,103440.00
2023-02-12T04:09:08.742Z,103438.00
2023-02-12T04:11:59.811Z,103440.00
2023-02-12T04:14:55.098Z,103448.00
2023-02-12T04:18:16.777Z,103445.00
2023-02-12T04:21:01.897Z,103441.00
2023-02-12T04:24:14.224Z,103446.00
2023-02-12T04:27:24.228Z,103451.00
2023-02-12T04:30:13.605Z,103450.00
2023-02-12T04:33:07.472Z,103451.00
2023-02-12T04:35:41.628Z,103462.00
2023-02-12T04:38:41.292Z,103454.00
2023-02-12T04:41:09.981Z,103456.00
2023-02-12T04:43:38.495Z,103454.00
2023-02-12T04:46:08.475Z,103466.00
2023-02-12T04:48:54.386Z,103470.00
2023-02-12T04:51:21.722Z,103476.00
2023-02-12T04:53:49.454Z,103465.00
2023-02-12T04:56:17.436Z,103472.00
2023-02-12T04:58:44.573Z,103463.00
2023-02-12T05:01:11.852Z,103467.00
2023-02-12T05:03:39.610Z,103467.00
2023-02-12T05:06:09.311Z,103472.00
2023-02-12T05:08:36.791Z,103469.00
2023-02-12T05:11:10.375Z,103464.00
2023-02-12T05:13:38.718Z,103468.00
2023-02-12T05:16:08.198Z,103472.00
2023-02-12T05:18:36.354Z,103473.00
2023-02-12T05:21:05.591Z,103473.00
2023-02-12T05:23:36.905Z,103461.00
2023-02-12T05:26:10.648Z,103470.00
2023-02-12T05:28:56.395Z,103484.00
2023-02-12T05:31:23.730Z,103478.00
2023-02-12T05:38:00.683Z,103483.00
2023-02-12T05:40:27.909Z,103481.00
2023-02-12T05:42:55.120Z,103479.00
2023-02-12T05:45:28.107Z,103488.00
2023-02-12T05:47:56.852Z,103490.00
2023-02-12T05:50:24.372Z,103490.00
2023-02-12T05:52:51.583Z,103484.00
2023-02-12T05:55:18.687Z,103489.00
2023-02-12T05:57:46.059Z,103489.00
2023-02-12T06:01:09.699Z,103493.00
2023-02-12T06:03:36.840Z,103485.00
2023-02-12T06:06:04.257Z,103486.00
2023-02-12T06:08:33.634Z,103483.00
2023-02-12T06:15:10.841Z,103495.00
2023-02-12T06:17:37.933Z,103497.00
2023-02-12T06:33:42.625Z,103493.00
2023-02-12T06:37:08.327Z,103499.00
2023-02-12T06:39:35.602Z,103488.00
2023-02-12T06:42:02.761Z,103499.00
2023-02-12T06:44:29.990Z,103498.00
2023-02-12T06:46:58.819Z,103510.00
2023-02-12T06:49:26.174Z,103516.00
2023-02-12T06:52:30.841Z,103516.00
2023-02-12T06:54:57.896Z,103516.00
2023-02-12T06:57:25.179Z,103518.00
2023-02-12T07:01:07.516Z,103515.00
2023-02-12T07:03:34.703Z,103517.00
2023-02-12T07:06:04.500Z,103522.00
2023-02-12T07:08:31.714Z,103523.00
2023-02-12T07:10:58.963Z,103510.00
2023-02-12T07:13:26.186Z,103524.00
2023-02-12T07:15:53.330Z,103521.00
2023-02-12T07:18:20.698Z,103522.00
2023-02-12T07:20:47.870Z,103520.00
2023-02-12T07:23:15.049Z,103523.00
2023-02-12T07:26:20.987Z,103544.00
2023-02-12T07:28:49.486Z,103532.00
2023-02-12T07:31:23.705Z,103534.00
2023-02-12T07:33:55.920Z,103527.00
2023-02-12T07:36:23.829Z,103530.00
2023-02-12T07:38:52.090Z,103525.00
2023-02-12T07:45:19.117Z,103533.00
2023-02-12T07:47:46.293Z,103533.00
2023-02-12T07:50:14.067Z,103524.00
2023-02-12T07:52:41.245Z,103521.00
2023-02-12T07:56:07.014Z,103531.00
2023-02-12T07:58:34.493Z,103530.00
2023-02-12T08:02:17.798Z,103535.00
2023-02-12T08:09:32.008Z,103541.00
2023-02-12T08:17:04.971Z,103544.00
2023-02-12T08:19:32.104Z,103546.00
2023-02-12T08:22:00.106Z,103546.00
2023-02-12T08:28:27.181Z,103548.00
2023-02-12T08:31:00.530Z,103546.00
2023-02-12T08:33:28.072Z,103558.00
2023-02-12T08:36:26.944Z,103563.00
2023-02-12T08:38:54.841Z,103567.00
2023-02-12T08:41:30.386Z,103564.00
2023-02-12T08:44:03.247Z,103549.00
2023-02-12T08:46:34.281Z,103556.00
2023-02-12T08:49:06.483Z,103561.00
2023-02-12T08:51:36.597Z,103552.00
2023-02-12T08:54:07.710Z,103559.00
2023-02-12T08:56:36.218Z,103566.00
2023-02-12T08:59:06.608Z,103562.00
2023-02-12T09:01:39.507Z,103560.00
2023-02-12T09:04:07.408Z,103566.00
2023-02-12T09:06:44.900Z,103557.00
2023-02-12T09:09:12.117Z,103553.00
2023-02-12T09:11:39.564Z,103558.00
2023-02-12T09:14:11.424Z,103560.00
2023-02-12T09:16:43.544Z,103564.00
2023-02-12T09:19:14.177Z,103566.00
2023-02-12T09:22:02.140Z,103573.00
2023-02-12T09:24:29.399Z,103571.00
2023-02-12T09:26:56.995Z,103569.00
2023-02-12T09:29:24.550Z,103569.00
2023-02-12T09:36:02.551Z,103572.00
2023-02-12T09:38:30.108Z,103566.00
2023-02-12T09:41:30.953Z,103575.00
2023-02-12T09:44:54.396Z,103570.00
2023-02-12T09:48:00.757Z,103582.00
2023-02-12T09:50:43.439Z,103574.00
2023-02-12T09:53:19.464Z,103580.00
2023-02-12T09:55:47.260Z,103579.00
2023-02-12T09:58:38.803Z,103590.00
2023-02-12T10:01:14.973Z,103588.00
2023-02-12T10:03:49.169Z,103590.00
2023-02-12T10:06:22.180Z,103590.00
2023-02-12T10:09:45.787Z,103584.00
2023-02-12T10:13:09.132Z,103597.00
2023-02-12T10:15:50.856Z,103587.00
2023-02-12T10:18:36.755Z,103591.00
2023-02-12T10:21:56.947Z,103589.00
2023-02-12T10:24:49.525Z,103590.00
2023-02-12T10:27:25.663Z,103585.00
2023-02-12T10:29:54.431Z,103589.00
2023-02-12T10:32:31.058Z,103587.00
2023-02-12T10:34:58.385Z,103591.00
2023-02-12T10:38:07.866Z,103585.00
2023-02-12T10:40:41.216Z,103582.00
2023-02-12T10:43:16.795Z,103586.00
2023-02-12T10:45:45.406Z,103584.00
2023-02-12T10:48:25.198Z,103577.00
2023-02-12T10:51:07.952Z,103577.00
2023-02-12T10:53:49.796Z,103570.00
2023-02-12T10:56:26.010Z,103571.00
2023-02-12T10:59:00.328Z,103573.00
2023-02-12T11:01:38.784Z,103582.00
2023-02-12T11:04:28.716Z,103574.00
2023-02-12T11:07:09.063Z,103573.00
2023-02-12T11:09:51.118Z,103578.00
2023-02-12T11:12:48.257Z,103575.00
2023-02-12T11:15:23.791Z,103565.00
2023-02-12T11:18:05.736Z,103563.00
2023-02-12T11:20:52.193Z,103570.00
2023-02-12T11:23:27.450Z,103564.00
2023-02-12T11:26:25.377Z,103556.00
2023-02-12T11:29:02.473Z,103562.00
2023-02-12T11:31:33.952Z,103559.00
2023-02-12T11:34:18.907Z,103551.00
2023-02-12T11:36:54.501Z,103550.00
2023-02-12T11:39:40.421Z,103553.00
2023-02-12T11:42:20.234Z,103549.00
2023-02-12T11:44:59.803Z,103552.00
2023-02-12T11:47:30.759Z,103548.00
2023-02-12T11:50:09.297Z,103543.00
2023-02-12T11:52:40.968Z,103539.00
2023-02-12T11:55:24.234Z,103536.00
2023-02-12T11:58:15.338Z,103532.00
2023-02-12T12:01:11.474Z,103539.00
2023-02-12T12:04:00.908Z,103532.00
2023-02-12T12:06:37.895Z,103528.00
2023-02-12T12:09:16.179Z,103525.00
2023-02-12T12:11:50.962Z,103530.00
2023-02-12T12:14:25.547Z,103521.00
2023-02-12T12:17:38.534Z,103520.00
2023-02-12T12:20:23.697Z,103528.00
2023-02-12T12:23:35.653Z,103520.00
2023-02-12T12:26:26.488Z,103520.00
2023-02-12T12:29:16.364Z,103517.00
2023-02-12T12:31:54.031Z,103512.00
2023-02-12T12:34:25.353Z,103506.00
2023-02-12T12:37:07.516Z,103505.00
2023-02-12T12:39:55.983Z,103505.00
2023-02-12T12:43:02.333Z,103496.00
2023-02-12T12:46:07.897Z,103495.00
2023-02-12T12:48:53.088Z,103492.00
2023-02-12T12:51:54.261Z,103487.00
2023-02-12T12:55:06.956Z,103487.00
2023-02-12T12:57:55.735Z,103492.00
2023-02-12T13:00:37.597Z,103485.00
2023-02-12T13:03:28.865Z,103479.00
2023-02-12T13:06:49.436Z,103471.00
2023-02-12T13:09:56.520Z,103473.00
2023-02-12T13:12:46.630Z,103472.00
2023-02-12T13:15:25.642Z,103465.00
2023-02-12T13:18:07.724Z,103466.00
2023-02-12T13:21:24.518Z,103463.00
2023-02-12T13:24:01.801Z,103457.00
2023-02-12T13:26:55.086Z,103462.00
2023-02-12T13:29:34.454Z,103453.00
2023-02-12T13:32:28.629Z,103453.00
2023-02-12T13:34:58.045Z,103450.00
2023-02-12T13:37:45.279Z,103447.00
2023-02-12T13:40:26.409Z,103456.00
2023-02-12T13:43:26.031Z,103452.00
2023-02-12T13:46:25.476Z,103459.00
2023-02-12T13:49:19.894Z,103453.00
2023-02-12T13:51:49.892Z,103469.00
2023-02-12T13:54:37.724Z,103462.00
2023-02-12T13:57:14.503Z,103456.00
2023-02-12T13:59:48.169Z,103458.00
2023-02-12T14:02:33.509Z,103461.00
2023-02-12T14:05:21.863Z,103458.00
2023-02-12T14:07:55.647Z,103466.00
2023-02-12T14:10:29.801Z,103458.00
2023-02-12T14:13:25.255Z,103456.00
2023-02-12T14:15:56.763Z,103459.00
2023-02-12T14:18:36.866Z,103455.00
2023-02-12T14:21:12.705Z,103456.00
2023-02-12T14:23:46.658Z,103459.00
2023-02-12T14:26:24.802Z,103449.00
2023-02-12T14:29:03.329Z,103458.00
2023-02-12T14:31:40.018Z,103462.00
2023-02-12T14:34:07.888Z,103459.00
2023-02-12T14:36:39.059Z,103461.00
2023-02-12T14:39:24.797Z,103458.00
2023-02-12T14:42:15.614Z,103455.00
2023-02-12T14:44:57.991Z,103459.00
2023-02-12T14:47:31.254Z,103454.00
2023-02-12T14:50:23.150Z,103463.00
2023-02-12T14:52:58.980Z,103452.00
2023-02-12T14:55:35.857Z,103461.00
2023-02-12T14:58:17.147Z,103459.00
2023-02-12T15:00:50.083Z,103450.00
2023-02-12T15:03:27.601Z,103453.00
2023-02-12T15:06:18.528Z,103450.00
2023-02-12T15:08:49.368Z,103454.00
2023-02-12T15:11:25.334Z,103448.00
2023-02-12T15:14:24.575Z,103449.00
2023-02-12T15:17:05.950Z,103446.00
2023-02-12T15:20:02.937Z,103448.00
2023-02-12T15:22:42.165Z,103434.00
2023-02-12T15:25:27.483Z,103439.00
2023-02-12T15:28:33.623Z,103437.00
2023-02-12T15:31:03.970Z,103430.00
2023-02-12T15:33:40.662Z,103433.00
2023-02-12T15:36:11.108Z,103436.00
2023-02-12T15:38:41.768Z,103428.00
2023-02-12T15:41:23.381Z,103430.00
2023-02-12T15:43:50.487Z,103432.00
2023-02-12T15:46:19.070Z,103433.00
2023-02-12T15:48:46.591Z,103427.00
2023-02-12T15:51:35.826Z,103425.00
2023-02-12T15:54:07.676Z,103435.00
2023-02-12T15:56:36.474Z,103436.00
2023-02-12T15:59:04.654Z,103429.00
2023-02-12T16:01:35.729Z,103427.00
2023-02-12T16:04:08.573Z,103430.00
2023-02-12T16:06:37.326Z,103423.00
2023-02-12T16:09:30.304Z,103413.00
2023-02-12T16:12:06.249Z,103422.00
2023-02-12T16:14:56.440Z,103422.00
2023-02-12T16:17:34.545Z,103424.00
2023-02-12T16:20:09.005Z,103422.00
2023-02-12T16:22:43.166Z,103431.00
2023-02-12T16:25:32.795Z,103423.00
2023-02-12T16:28:16.029Z,103420.00
2023-02-12T16:30:45.075Z,103423.00
2023-02-12T16:33:39.985Z,103427.00
2023-02-12T16:36:26.543Z,103427.00
2023-02-12T16:39:06.750Z,103427.00
2023-02-12T16:41:56.890Z,103429.00
2023-02-12T16:44:42.777Z,103429.00
2023-02-12T16:47:22.823Z,103429.00
2023-02-12T16:49:58.461Z,103426.00
2023-02-12T16:52:40.357Z,103433.00
2023-02-12T16:55:15.437Z,103424.00
2023-02-12T16:57:43.123Z,103429.00
2023-02-12T17:00:17.379Z,103426.00
2023-02-12T17:02:44.806Z,103428.00
2023-02-12T17:05:17.676Z,103427.00
2023-02-12T17:07:45.147Z,103440.00
2023-02-12T17:10:17.113Z,103432.00
2023-02-12T17:12:50.010Z,103432.00
2023-02-12T17:15:38.477Z,103432.00
2023-02-12T17:18:05.821Z,103436.00
2023-02-12T17:20:32.983Z,103442.00
2023-02-12T17:23:00.978Z,103423.00
2023-02-12T17:25:30.318Z,103424.00
2023-02-12T17:28:36.441Z,103423.00
2023-02-12T17:31:07.235Z,103424.00
2023-02-12T17:33:34.570Z,103431.00
2023-02-12T17:36:05.018Z,103429.00
2023-02-12T17:38:32.428Z,103430.00
2023-02-12T17:41:19.845Z,103424.00
2023-02-12T17:43:46.977Z,103426.00
2023-02-12T17:46:32.899Z,103430.00
2023-02-12T17:49:00.191Z,103438.00
2023-02-12T17:51:27.636Z,103438.00
2023-02-12T17:53:54.965Z,103438.00
2023-02-12T17:56:25.832Z,103431.00
2023-02-12T17:58:54.154Z,103432.00
2023-02-12T18:01:24.139Z,103442.00
2023-02-12T18:03:55.382Z,103440.00
2023-02-12T18:06:30.997Z,103438.00
2023-02-12T18:09:01.866Z,103440.00
2023-02-12T18:11:30.220Z,103443.00
2023-02-12T18:13:58.308Z,103443.00
2023-02-12T18:16:29.725Z,103440.00
2023-02-12T18:18:57.462Z,103437.00
2023-02-12T18:21:24.738Z,103437.00
2023-02-12T18:23:54.469Z,103432.00
2023-02-12T18:26:40.378Z,103434.00
2023-02-12T18:29:07.709Z,103438.00
2023-02-12T18:31:55.280Z,103432.00
2023-02-12T18:34:24.213Z,103441.00
2023-02-12T18:36:51.480Z,103444.00
2023-02-12T18:39:18.672Z,103441.00
2023-02-12T18:41:46.566Z,103434.00
2023-02-12T18:44:15.262Z,103445.00
2023-02-12T18:46:42.859Z,103444.00
2023-02-12T18:49:12.176Z,103448.00
2023-02-12T18:51:41.141Z,103444.00
2023-02-12T18:54:13.492Z,103435.00
2023-02-12T18:56:44.223Z,103435.00
2023-02-12T18:59:15.444Z,103431.00
2023-02-12T19:01:46.440Z,103426.00
2023-02-12T19:04:16.110Z,103434.00
2023-02-12T19:06:51.279Z,103435.00
2023-02-12T19:09:22.081Z,103427.00
2023-02-12T19:11:52.629Z,103424.00
2023-02-12T19:14:23.219Z,103428.00
2023-02-12T19:16:50.925Z,103419.00
2023-02-12T19:19:24.493Z,103423.00
2023-02-12T19:21:52.041Z,103423.00
2023-02-12T19:24:20.082Z,103426.00
2023-02-12T19:26:51.458Z,103425.00
2023-02-12T19:29:21.148Z,103412.00
2023-02-12T19:31:48.558Z,103415.00
2023-02-12T19:34:21.068Z,103421.00
2023-02-12T19:36:50.062Z,103412.00
2023-02-12T19:39:21.431Z,103427.00
2023-02-12T19:41:49.054Z,103414.00
2023-02-12T19:44:23.643Z,103419.00
2023-02-12T19:46:52.121Z,103418.00
2023-02-12T19:49:26.627Z,103422.00
2023-02-12T19:51:54.189Z,103421.00
2023-02-12T19:54:23.901Z,103420.00
2023-02-12T19:56:55.538Z,103419.00
2023-02-12T19:59:25.038Z,103412.00
2023-02-12T20:01:52.423Z,103420.00
2023-02-12T20:04:23.330Z,103416.00
2023-02-12T20:06:53.410Z,103415.00
2023-02-12T20:09:22.572Z,103411.00
2023-02-12T20:11:50.229Z,103415.00
2023-02-12T20:14:18.045Z,103402.00
2023-02-12T20:16:46.942Z,103413.00
2023-02-12T20:19:26.699Z,103410.00
2023-02-12T20:21:56.106Z,103412.00
2023-02-12T20:24:28.606Z,103412.00
2023-02-12T20:26:57.756Z,103404.00
2023-02-12T20:29:25.546Z,103400.00
2023-02-12T20:31:53.181Z,103415.00
2023-02-12T20:34:50.483Z,103400.00
2023-02-12T20:37:19.223Z,103403.00
2023-02-12T20:39:46.668Z,103398.00
2023-02-12T20:42:16.301Z,103410.00
2023-02-12T20:44:43.681Z,103429.00
2023-02-12T20:47:10.883Z,103419.00
2023-02-12T20:49:38.380Z,103422.00
2023-02-12T20:52:05.842Z,103423.00
2023-02-12T20:54:33.260Z,103423.00
2023-02-12T20:57:01.351Z,103421.00
2023-02-12T20:59:28.581Z,103418.00
2023-02-12T21:01:55.709Z,103402.00
2023-02-12T21:04:22.953Z,103416.00
2023-02-12T21:06:50.209Z,103408.00
2023-02-12T21:09:19.156Z,103414.00
2023-02-12T21:11:46.642Z,103409.00
2023-02-12T21:14:24.160Z,103411.00
2023-02-12T21:16:54.435Z,103411.00
2023-02-12T21:19:22.510Z,103411.00
2023-02-12T21:21:49.913Z,103401.00
2023-02-12T21:24:21.871Z,103402.00
2023-02-12T21:26:50.191Z,103399.00
2023-02-12T21:29:17.741Z,103392.00
2023-02-12T21:31:49.300Z,103391.00
2023-02-12T21:34:21.608Z,103391.00
2023-02-12T21:36:50.600Z,103395.00
2023-02-12T21:39:27.419Z,103389.00
2023-02-12T21:41:58.698Z,103390.00
2023-02-12T21:44:27.057Z,103390.00
2023-02-12T21:46:54.853Z,103393.00
2023-02-12T21:49:25.252Z,103396.00
2023-02-12T21:51:56.535Z,103395.00
2023-02-12T21:54:24.105Z,103386.00
2023-02-12T21:56:52.109Z,103385.00
2023-02-12T22:00:17.759Z,103379.00
2023-02-12T22:02:44.928Z,103389.00
2023-02-12T22:05:12.127Z,103373.00
2023-02-12T22:07:39.207Z,103384.00
2023-02-12T22:10:08.384Z,103380.00
2023-02-12T22:12:36.545Z,103375.00
2023-02-12T22:15:03.997Z,103378.00
2023-02-12T22:21:43.305Z,103390.00
2023-02-12T22:24:16.380Z,103388.00
2023-02-12T22:26:44.860Z,103383.00
2023-02-12T22:29:16.191Z,103387.00
2023-02-12T22:31:46.001Z,103389.00
2023-02-12T22:34:19.283Z,103385.00
2023-02-12T22:36:47.317Z,103391.00
2023-02-12T22:39:17.782Z,103392.00
2023-02-12T22:41:45.682Z,103391.00
2023-02-12T22:44:15.111Z,103389.00
2023-02-12T22:46:43.443Z,103398.00
2023-02-12T22:49:11.147Z,103395.00
2023-02-12T22:51:39.802Z,103401.00
2023-02-12T22:54:25.904Z,103396.00
2023-02-12T22:56:53.580Z,103396.00
2023-02-12T22:59:22.973Z,103397.00
2023-02-12T23:01:50.301Z,103396.00
2023-02-12T23:05:13.993Z,103398.00
2023-02-12T23:07:41.061Z,103396.00
2023-02-12T23:10:08.837Z,103397.00
2023-02-12T23:12:35.909Z,103397.00
2023-02-12T23:15:03.045Z,103398.00
2023-02-12T23:17:30.205Z,103401.00
2023-02-12T23:20:35.066Z,103394.00
2023-02-12T23:28:27.045Z,103386.00
2023-02-12T23:30:54.661Z,103389.00
2023-02-12T23:33:22.252Z,103381.00
2023-02-12T23:35:49.891Z,103373.00
2023-02-12T23:38:17.947Z,103375.00
2023-02-12T23:40:45.299Z,103370.00
2023-02-12T23:43:12.532Z,103368.00
2023-02-12T23:45:39.633Z,103370.00
2023-02-12T23:48:06.807Z,103361.00
2023-02-12T23:50:33.990Z,103363.00
2023-02-12T23:53:01.179Z,103370.00
2023-02-12T23:55:29.110Z,103351.00
2023-02-12T23:57:56.342Z,103356.00
